sensor_id;sensor_type;location;lat;lon;timestamp;pressure;altitude;pressure_sealevel;temperature;humidity
11077;BME280;5591;42.626;23.380;2023-07-31T00:01:11;93868.59;;;21.99;100.00
11077;BME280;5591;42.626;23.380;2023-07-31T00:03:38;93866.97;;;22.08;100.00
11077;BME280;5591;42.626;23.380;2023-07-31T00:06:06;93859.78;;;22.09;100.00
11077;BME280;5591;42.626;23.380;2023-07-31T00:08:33;93867.53;;;22.15;100.00
11077;BME280;5591;42.626;23.380;2023-07-31T00:11:00;93866.72;;;22.25;100.00
11077;BME280;5591;42.626;23.380;2023-07-31T00:13:27;93876.38;;;22.41;100.00
11077;BME280;5591;42.626;23.380;2023-07-31T00:15:54;93872.63;;;22.52;100.00
11077;BME280;5591;42.626;23.380;2023-07-31T00:18:20;93871.28;;;22.59;100.00
11077;BME280;5591;42.626;23.380;2023-07-31T00:20:47;93801.22;;;22.17;100.00
11077;BME280;5591;42.626;23.380;2023-07-31T00:23:15;93873.16;;;22.69;100.00
11077;BME280;5591;42.626;23.380;2023-07-31T00:25:42;93876.34;;;22.66;100.00
11077;BME280;5591;42.626;23.380;2023-07-31T00:28:09;93869.91;;;22.72;100.00
11077;BME280;5591;42.626;23.380;2023-07-31T00:30:36;93861.38;;;22.70;100.00
11077;BME280;5591;42.626;23.380;2023-07-31T00:33:03;93860.31;;;22.61;100.00
11077;BME280;5591;42.626;23.380;2023-07-31T00:35:30;93852.28;;;22.61;100.00
11077;BME280;5591;42.626;23.380;2023-07-31T00:37:58;93818.03;;;22.33;100.00
11077;BME280;5591;42.626;23.380;2023-07-31T00:40:26;93837.56;;;22.38;100.00
11077;BME280;5591;42.626;23.380;2023-07-31T00:42:53;93839.47;;;22.43;100.00
11077;BME280;5591;42.626;23.380;2023-07-31T00:45:20;93835.97;;;22.27;100.00
11077;BME280;5591;42.626;23.380;2023-07-31T00:47:48;93834.09;;;22.28;100.00
11077;BME280;5591;42.626;23.380;2023-07-31T00:50:15;93831.41;;;21.93;100.00
11077;BME280;5591;42.626;23.380;2023-07-31T00:52:42;93751.75;;;21.60;100.00
11077;BME280;5591;42.626;23.380;2023-07-31T00:55:09;93837.88;;;22.17;100.00
11077;BME280;5591;42.626;23.380;2023-07-31T00:57:38;93856.31;;;22.13;100.00
11077;BME280;5591;42.626;23.380;2023-07-31T01:00:08;93845.34;;;22.05;100.00
11077;BME280;5591;42.626;23.380;2023-07-31T01:02:36;93820.91;;;21.41;100.00
11077;BME280;5591;42.626;23.380;2023-07-31T01:05:04;93830.00;;;21.35;100.00
11077;BME280;5591;42.626;23.380;2023-07-31T01:07:35;93825.22;;;21.57;100.00
11077;BME280;5591;42.626;23.380;2023-07-31T01:10:09;93820.63;;;21.38;100.00
11077;BME280;5591;42.626;23.380;2023-07-31T01:12:40;93816.91;;;21.44;100.00
11077;BME280;5591;42.626;23.380;2023-07-31T01:15:08;93823.94;;;21.65;100.00
11077;BME280;5591;42.626;23.380;2023-07-31T01:17:36;93818.25;;;21.41;100.00
11077;BME280;5591;42.626;23.380;2023-07-31T01:20:08;93817.44;;;21.31;100.00
11077;BME280;5591;42.626;23.380;2023-07-31T01:23:03;93812.09;;;21.31;100.00
11077;BME280;5591;42.626;23.380;2023-07-31T01:25:50;93805.69;;;21.37;100.00
11077;BME280;5591;42.626;23.380;2023-07-31T01:28:20;93805.41;;;21.28;100.00
11077;BME280;5591;42.626;23.380;2023-07-31T01:30:50;93797.88;;;21.10;100.00
11077;BME280;5591;42.626;23.380;2023-07-31T01:33:17;93796.50;;;20.98;100.00
11077;BME280;5591;42.626;23.380;2023-07-31T01:35:45;93795.06;;;20.75;100.00
11077;BME280;5591;42.626;23.380;2023-07-31T01:38:12;93714.94;;;20.50;100.00
11077;BME280;5591;42.626;23.380;2023-07-31T01:40:41;93783.06;;;20.78;100.00
11077;BME280;5591;42.626;23.380;2023-07-31T01:43:10;93775.38;;;20.86;100.00
11077;BME280;5591;42.626;23.380;2023-07-31T01:45:37;93774.97;;;20.58;100.00
11077;BME280;5591;42.626;23.380;2023-07-31T01:48:04;93761.34;;;20.59;100.00
11077;BME280;5591;42.626;23.380;2023-07-31T01:50:30;93767.75;;;20.58;100.00
11077;BME280;5591;42.626;23.380;2023-07-31T01:52:57;93808.53;;;20.49;100.00
11077;BME280;5591;42.626;23.380;2023-07-31T01:55:24;93763.72;;;20.46;100.00
11077;BME280;5591;42.626;23.380;2023-07-31T01:57:51;93770.91;;;20.45;100.00
11077;BME280;5591;42.626;23.380;2023-07-31T02:00:20;93735.47;;;20.04;100.00
11077;BME280;5591;42.626;23.380;2023-07-31T02:02:46;93774.34;;;20.41;100.00
11077;BME280;5591;42.626;23.380;2023-07-31T02:05:13;93774.69;;;20.59;100.00
11077;BME280;5591;42.626;23.380;2023-07-31T02:07:40;93768.84;;;20.62;100.00
11077;BME280;5591;42.626;23.380;2023-07-31T02:10:07;93766.69;;;20.54;100.00
11077;BME280;5591;42.626;23.380;2023-07-31T02:12:34;93750.81;;;20.33;100.00
11077;BME280;5591;42.626;23.380;2023-07-31T02:15:01;93773.72;;;20.75;100.00
11077;BME280;5591;42.626;23.380;2023-07-31T02:17:29;93765.84;;;20.49;100.00
11077;BME280;5591;42.626;23.380;2023-07-31T02:19:56;93772.31;;;20.63;100.00
11077;BME280;5591;42.626;23.380;2023-07-31T02:22:23;93772.06;;;20.64;100.00
11077;BME280;5591;42.626;23.380;2023-07-31T02:24:49;93779.53;;;20.67;100.00
11077;BME280;5591;42.626;23.380;2023-07-31T02:27:16;93782.19;;;20.62;100.00
11077;BME280;5591;42.626;23.380;2023-07-31T02:29:43;93782.53;;;20.81;100.00
11077;BME280;5591;42.626;23.380;2023-07-31T02:32:10;93772.88;;;20.70;100.00
11077;BME280;5591;42.626;23.380;2023-07-31T02:34:38;93775.59;;;20.80;100.00
11077;BME280;5591;42.626;23.380;2023-07-31T02:37:05;93774.13;;;21.14;100.00
11077;BME280;5591;42.626;23.380;2023-07-31T02:39:32;93772.25;;;21.04;100.00
11077;BME280;5591;42.626;23.380;2023-07-31T02:41:59;93777.06;;;21.22;100.00
11077;BME280;5591;42.626;23.380;2023-07-31T02:44:27;93786.91;;;21.07;100.00
11077;BME280;5591;42.626;23.380;2023-07-31T02:46:53;93774.13;;;21.09;100.00
11077;BME280;5591;42.626;23.380;2023-07-31T02:49:20;93773.06;;;21.10;100.00
11077;BME280;5591;42.626;23.380;2023-07-31T02:51:48;93775.44;;;21.06;100.00
11077;BME280;5591;42.626;23.380;2023-07-31T02:54:15;93780.28;;;21.19;100.00
11077;BME280;5591;42.626;23.380;2023-07-31T02:56:42;93782.94;;;21.19;100.00
11077;BME280;5591;42.626;23.380;2023-07-31T02:59:09;93780.75;;;21.01;100.00
11077;BME280;5591;42.626;23.380;2023-07-31T03:01:35;93789.34;;;21.13;100.00
11077;BME280;5591;42.626;23.380;2023-07-31T03:04:02;93785.38;;;21.21;100.00
11077;BME280;5591;42.626;23.380;2023-07-31T03:06:29;93795.41;;;20.94;100.00
11077;BME280;5591;42.626;23.380;2023-07-31T03:08:58;93787.22;;;21.15;100.00
11077;BME280;5591;42.626;23.380;2023-07-31T03:11:24;93786.16;;;21.21;100.00
11077;BME280;5591;42.626;23.380;2023-07-31T03:13:51;93783.72;;;21.05;100.00
11077;BME280;5591;42.626;23.380;2023-07-31T03:16:19;93790.44;;;21.22;100.00
11077;BME280;5591;42.626;23.380;2023-07-31T03:18:46;93782.66;;;21.11;100.00
11077;BME280;5591;42.626;23.380;2023-07-31T03:21:13;93787.47;;;21.14;100.00
11077;BME280;5591;42.626;23.380;2023-07-31T03:23:39;93782.38;;;21.12;100.00
11077;BME280;5591;42.626;23.380;2023-07-31T03:26:07;93793.66;;;21.29;100.00
11077;BME280;5591;42.626;23.380;2023-07-31T03:28:34;93800.53;;;21.10;100.00
11077;BME280;5591;42.626;23.380;2023-07-31T03:31:01;93789.63;;;21.22;100.00
11077;BME280;5591;42.626;23.380;2023-07-31T03:33:28;93799.25;;;21.23;100.00
11077;BME280;5591;42.626;23.380;2023-07-31T03:35:55;93802.19;;;21.26;100.00
11077;BME280;5591;42.626;23.380;2023-07-31T03:38:22;93802.19;;;21.26;100.00
11077;BME280;5591;42.626;23.380;2023-07-31T03:40:49;93795.50;;;21.29;100.00
11077;BME280;5591;42.626;23.380;2023-07-31T03:43:17;93798.25;;;21.54;100.00
11077;BME280;5591;42.626;23.380;2023-07-31T03:45:44;93805.16;;;21.45;100.00
11077;BME280;5591;42.626;23.380;2023-07-31T03:48:11;93805.47;;;21.58;100.00
11077;BME280;5591;42.626;23.380;2023-07-31T03:50:37;93808.06;;;21.28;100.00
11077;BME280;5591;42.626;23.380;2023-07-31T03:53:04;93818.75;;;21.33;100.00
11077;BME280;5591;42.626;23.380;2023-07-31T03:55:31;93813.16;;;21.35;100.00
11077;BME280;5591;42.626;23.380;2023-07-31T03:57:58;93812.91;;;21.41;100.00
11077;BME280;5591;42.626;23.380;2023-07-31T04:00:27;93827.06;;;21.47;100.00
11077;BME280;5591;42.626;23.380;2023-07-31T04:02:54;93826.19;;;21.21;100.00
11077;BME280;5591;42.626;23.380;2023-07-31T04:05:21;93828.13;;;21.41;100.00
11077;BME280;5591;42.626;23.380;2023-07-31T04:07:47;93827.31;;;21.40;100.00
11077;BME280;5591;42.626;23.380;2023-07-31T04:10:14;93827.56;;;21.34;100.00
11077;BME280;5591;42.626;23.380;2023-07-31T04:12:41;93832.03;;;21.08;100.00
11077;BME280;5591;42.626;23.380;2023-07-31T04:15:08;93833.19;;;21.37;100.00
11077;BME280;5591;42.626;23.380;2023-07-31T04:17:37;93764.53;;;21.08;100.00
11077;BME280;5591;42.626;23.380;2023-07-31T04:20:04;93838.22;;;21.29;100.00
11077;BME280;5591;42.626;23.380;2023-07-31T04:22:31;93828.91;;;21.31;100.00
11077;BME280;5591;42.626;23.380;2023-07-31T04:24:58;93827.50;;;21.14;100.00
11077;BME280;5591;42.626;23.380;2023-07-31T04:27:25;93820.56;;;21.18;100.00
11077;BME280;5591;42.626;23.380;2023-07-31T04:29:52;93843.38;;;21.45;100.00
11077;BME280;5591;42.626;23.380;2023-07-31T04:32:18;93825.69;;;21.34;100.00
11077;BME280;5591;42.626;23.380;2023-07-31T04:34:47;93844.44;;;21.49;100.00
11077;BME280;5591;42.626;23.380;2023-07-31T04:37:14;93841.78;;;21.59;100.00
11077;BME280;5591;42.626;23.380;2023-07-31T04:39:41;93846.09;;;21.75;100.00
11077;BME280;5591;42.626;23.380;2023-07-31T04:42:08;93847.91;;;21.40;100.00
11077;BME280;5591;42.626;23.380;2023-07-31T04:44:35;93807.53;;;21.26;100.00
11077;BME280;5591;42.626;23.380;2023-07-31T04:47:02;93859.47;;;21.75;100.00
11077;BME280;5591;42.626;23.380;2023-07-31T04:49:29;93849.88;;;21.84;100.00
11077;BME280;5591;42.626;23.380;2023-07-31T04:51:57;93857.63;;;21.86;100.00
11077;BME280;5591;42.626;23.380;2023-07-31T04:54:24;93849.31;;;21.87;100.00
11077;BME280;5591;42.626;23.380;2023-07-31T04:56:51;93848.53;;;21.87;100.00
11077;BME280;5591;42.626;23.380;2023-07-31T04:59:18;93838.38;;;21.74;100.00
11077;BME280;5591;42.626;23.380;2023-07-31T05:01:45;93849.09;;;22.04;100.00
11077;BME280;5591;42.626;23.380;2023-07-31T05:04:12;93866.97;;;21.93;100.00
11077;BME280;5591;42.626;23.380;2023-07-31T05:06:39;93856.53;;;21.77;100.00
11077;BME280;5591;42.626;23.380;2023-07-31T05:09:08;93851.47;;;21.90;100.00
11077;BME280;5591;42.626;23.380;2023-07-31T05:11:35;93855.75;;;21.86;100.00
11077;BME280;5591;42.626;23.380;2023-07-31T05:14:02;93852.81;;;21.88;100.00
11077;BME280;5591;42.626;23.380;2023-07-31T05:16:29;93842.66;;;21.75;100.00
11077;BME280;5591;42.626;23.380;2023-07-31T05:18:56;93845.31;;;21.90;100.00
11077;BME280;5591;42.626;23.380;2023-07-31T05:21:22;93841.06;;;22.04;100.00
11077;BME280;5591;42.626;23.380;2023-07-31T05:23:49;93847.72;;;22.06;100.00
11077;BME280;5591;42.626;23.380;2023-07-31T05:26:17;93839.19;;;22.24;100.00
11077;BME280;5591;42.626;23.380;2023-07-31T05:28:44;93853.63;;;22.33;100.00
11077;BME280;5591;42.626;23.380;2023-07-31T05:31:11;93845.84;;;22.57;100.00
11077;BME280;5591;42.626;23.380;2023-07-31T05:33:38;93866.47;;;22.01;100.00
11077;BME280;5591;42.626;23.380;2023-07-31T05:36:05;93855.78;;;22.31;100.00
11077;BME280;5591;42.626;23.380;2023-07-31T05:38:31;93846.69;;;22.32;100.00
11077;BME280;5591;42.626;23.380;2023-07-31T05:40:58;93856.84;;;22.10;100.00
11077;BME280;5591;42.626;23.380;2023-07-31T05:43:26;93860.84;;;22.43;100.00
11077;BME280;5591;42.626;23.380;2023-07-31T05:45:53;93846.41;;;22.09;100.00
11077;BME280;5591;42.626;23.380;2023-07-31T05:48:20;93867.53;;;22.50;100.00
11077;BME280;5591;42.626;23.380;2023-07-31T05:50:47;93848.81;;;22.40;100.00
11077;BME280;5591;42.626;23.380;2023-07-31T05:53:13;93861.41;;;22.40;100.00
11077;BME280;5591;42.626;23.380;2023-07-31T05:55:40;93859.22;;;22.62;100.00
11077;BME280;5591;42.626;23.380;2023-07-31T05:58:07;93851.75;;;22.54;100.00
11077;BME280;5591;42.626;23.380;2023-07-31T06:00:35;93876.88;;;22.73;100.00
11077;BME280;5591;42.626;23.380;2023-07-31T06:03:02;93880.06;;;22.85;100.00
11077;BME280;5591;42.626;23.380;2023-07-31T06:05:29;93872.28;;;22.83;100.00
11077;BME280;5591;42.626;23.380;2023-07-31T06:07:56;93889.19;;;22.69;100.00
11077;BME280;5591;42.626;23.380;2023-07-31T06:10:23;93896.13;;;22.80;100.00
11077;BME280;5591;42.626;23.380;2023-07-31T06:12:50;93853.09;;;22.46;100.00
11077;BME280;5591;42.626;23.380;2023-07-31T06:15:17;93880.66;;;22.47;100.00
11077;BME280;5591;42.626;23.380;2023-07-31T06:17:46;93886.53;;;22.69;100.00
11077;BME280;5591;42.626;23.380;2023-07-31T06:20:13;93880.03;;;23.00;100.00
11077;BME280;5591;42.626;23.380;2023-07-31T06:22:40;93908.16;;;22.97;100.00
11077;BME280;5591;42.626;23.380;2023-07-31T06:25:07;93883.66;;;23.38;100.00
11077;BME280;5591;42.626;23.380;2023-07-31T06:27:34;93899.22;;;23.36;100.00
11077;BME280;5591;42.626;23.380;2023-07-31T06:30:01;93896.59;;;23.11;100.00
11077;BME280;5591;42.626;23.380;2023-07-31T06:32:27;93883.50;;;23.00;100.00
11077;BME280;5591;42.626;23.380;2023-07-31T06:34:55;93887.47;;;23.07;100.00
11077;BME280;5591;42.626;23.380;2023-07-31T06:37:22;93891.25;;;23.21;100.00
11077;BME280;5591;42.626;23.380;2023-07-31T06:39:49;93896.06;;;23.04;100.00
11077;BME280;5591;42.626;23.380;2023-07-31T06:42:16;93868.75;;;23.17;100.00
11077;BME280;5591;42.626;23.380;2023-07-31T06:44:43;93885.81;;;23.36;100.00
11077;BME280;5591;42.626;23.380;2023-07-31T06:47:11;93851.63;;;22.98;100.00
11077;BME280;5591;42.626;23.380;2023-07-31T06:49:38;93897.38;;;23.22;100.00
11077;BME280;5591;42.626;23.380;2023-07-31T06:52:06;93896.00;;;23.34;100.00
11077;BME280;5591;42.626;23.380;2023-07-31T06:54:34;93896.00;;;23.34;100.00
11077;BME280;5591;42.626;23.380;2023-07-31T06:57:01;93899.47;;;23.35;100.00
11077;BME280;5591;42.626;23.380;2023-07-31T06:59:27;93901.44;;;23.73;100.00
11077;BME280;5591;42.626;23.380;2023-07-31T07:01:54;93887.41;;;23.42;100.00
11077;BME280;5591;42.626;23.380;2023-07-31T07:04:21;93892.22;;;23.40;100.00
11077;BME280;5591;42.626;23.380;2023-07-31T07:06:48;93887.97;;;23.29;100.00
11077;BME280;5591;42.626;23.380;2023-07-31T07:09:16;93900.13;;;22.97;100.00
11077;BME280;5591;42.626;23.380;2023-07-31T07:11:43;93872.19;;;23.23;100.00
11077;BME280;5591;42.626;23.380;2023-07-31T07:14:10;93885.13;;;23.69;100.00
11077;BME280;5591;42.626;23.380;2023-07-31T07:16:37;93878.78;;;23.99;100.00
11077;BME280;5591;42.626;23.380;2023-07-31T07:19:06;93891.84;;;23.62;100.00
11077;BME280;5591;42.626;23.380;2023-07-31T07:21:33;93885.13;;;23.69;100.00
11077;BME280;5591;42.626;23.380;2023-07-31T07:23:59;93890.47;;;23.69;100.00
11077;BME280;5591;42.626;23.380;2023-07-31T07:26:28;93891.09;;;23.56;100.00
11077;BME280;5591;42.626;23.380;2023-07-31T07:28:54;93901.28;;;23.49;100.00
11077;BME280;5591;42.626;23.380;2023-07-31T07:31:21;93901.19;;;23.69;100.00
11077;BME280;5591;42.626;23.380;2023-07-31T07:33:48;93903.00;;;23.20;100.00
11077;BME280;5591;42.626;23.380;2023-07-31T07:36:15;93922.34;;;23.76;100.00
11077;BME280;5591;42.626;23.380;2023-07-31T07:38:41;93913.13;;;23.38;100.00
11077;BME280;5591;42.626;23.380;2023-07-31T07:41:08;93918.09;;;23.65;100.00
11077;BME280;5591;42.626;23.380;2023-07-31T07:43:36;93919.09;;;23.79;100.00
11077;BME280;5591;42.626;23.380;2023-07-31T07:46:03;93919.06;;;23.94;100.00
11077;BME280;5591;42.626;23.380;2023-07-31T07:48:30;93928.22;;;23.83;100.00
11077;BME280;5591;42.626;23.380;2023-07-31T07:50:57;93904.19;;;23.63;100.00
11077;BME280;5591;42.626;23.380;2023-07-31T07:53:23;93919.63;;;24.29;100.00
11077;BME280;5591;42.626;23.380;2023-07-31T07:55:50;93922.47;;;24.81;100.00
11077;BME280;5591;42.626;23.380;2023-07-31T07:58:17;93924.84;;;24.83;100.00
11077;BME280;5591;42.626;23.380;2023-07-31T08:00:50;93940.53;;;24.71;100.00
11077;BME280;5591;42.626;23.380;2023-07-31T08:03:17;93933.31;;;24.28;100.00
11077;BME280;5591;42.626;23.380;2023-07-31T08:05:44;93932.88;;;24.54;100.00
11077;BME280;5591;42.626;23.380;2023-07-31T08:08:14;93928.75;;;24.95;100.00
11077;BME280;5591;42.626;23.380;2023-07-31T08:10:40;93885.50;;;24.68;100.00
11077;BME280;5591;42.626;23.380;2023-07-31T08:13:07;93919.25;;;25.08;100.00
11077;BME280;5591;42.626;23.380;2023-07-31T08:15:34;93940.59;;;25.18;100.00
11077;BME280;5591;42.626;23.380;2023-07-31T08:18:02;93931.56;;;24.47;100.00
11077;BME280;5591;42.626;23.380;2023-07-31T08:20:29;93929.47;;;24.44;100.00
11077;BME280;5591;42.626;23.380;2023-07-31T08:22:56;93930.88;;;24.70;100.00
11077;BME280;5591;42.626;23.380;2023-07-31T08:25:23;93917.19;;;25.00;100.00
11077;BME280;5591;42.626;23.380;2023-07-31T08:27:50;93921.38;;;25.06;100.00
11077;BME280;5591;42.626;23.380;2023-07-31T08:30:18;93929.97;;;24.79;100.00
11077;BME280;5591;42.626;23.380;2023-07-31T08:32:45;93917.44;;;24.98;100.00
11077;BME280;5591;42.626;23.380;2023-07-31T08:35:14;93918.44;;;25.07;100.00
11077;BME280;5591;42.626;23.380;2023-07-31T08:37:40;93936.50;;;25.02;100.00
11077;BME280;5591;42.626;23.380;2023-07-31T08:40:08;93929.28;;;24.69;100.00
11077;BME280;5591;42.626;23.380;2023-07-31T08:42:43;93908.50;;;25.08;98.78
11077;BME280;5591;42.626;23.380;2023-07-31T08:45:13;93938.91;;;25.03;98.92
11077;BME280;5591;42.626;23.380;2023-07-31T08:47:41;93922.47;;;25.05;98.25
11077;BME280;5591;42.626;23.380;2023-07-31T08:50:09;93920.84;;;25.61;94.77
11077;BME280;5591;42.626;23.380;2023-07-31T08:52:38;93920.88;;;25.56;95.34
11077;BME280;5591;42.626;23.380;2023-07-31T08:55:06;93927.72;;;25.67;95.44
11077;BME280;5591;42.626;23.380;2023-07-31T08:57:35;93921.44;;;25.29;96.12
11077;BME280;5591;42.626;23.380;2023-07-31T09:00:03;93926.84;;;25.53;94.38
11077;BME280;5591;42.626;23.380;2023-07-31T09:02:35;93918.72;;;26.18;91.68
11077;BME280;5591;42.626;23.380;2023-07-31T09:05:04;93857.03;;;25.84;89.33
11077;BME280;5591;42.626;23.380;2023-07-31T09:07:33;93923.19;;;26.09;90.09
11077;BME280;5591;42.626;23.380;2023-07-31T09:10:03;93921.41;;;25.99;90.68
11077;BME280;5591;42.626;23.380;2023-07-31T09:12:30;93921.47;;;26.68;85.85
11077;BME280;5591;42.626;23.380;2023-07-31T09:14:58;93927.84;;;25.57;90.63
11077;BME280;5591;42.626;23.380;2023-07-31T09:17:32;93916.34;;;25.98;89.53
11077;BME280;5591;42.626;23.380;2023-07-31T09:20:13;93918.00;;;25.94;87.93
11077;BME280;5591;42.626;23.380;2023-07-31T09:22:40;93908.78;;;26.00;87.02
11077;BME280;5591;42.626;23.380;2023-07-31T09:25:16;93894.78;;;26.53;84.10
11077;BME280;5591;42.626;23.380;2023-07-31T09:27:47;93912.38;;;26.46;84.28
11077;BME280;5591;42.626;23.380;2023-07-31T09:30:15;93865.13;;;26.21;83.31
11077;BME280;5591;42.626;23.380;2023-07-31T09:32:44;93902.22;;;26.43;83.16
11077;BME280;5591;42.626;23.380;2023-07-31T09:35:19;93900.06;;;26.40;83.40
11077;BME280;5591;42.626;23.380;2023-07-31T09:37:49;93894.22;;;26.56;82.12
11077;BME280;5591;42.626;23.380;2023-07-31T09:40:27;93894.94;;;26.62;82.69
11077;BME280;5591;42.626;23.380;2023-07-31T09:42:56;93892.47;;;26.79;82.78
11077;BME280;5591;42.626;23.380;2023-07-31T09:45:24;93891.16;;;26.26;84.61
11077;BME280;5591;42.626;23.380;2023-07-31T09:47:51;93895.69;;;26.94;82.35
11077;BME280;5591;42.626;23.380;2023-07-31T09:50:20;93820.44;;;26.84;80.19
11077;BME280;5591;42.626;23.380;2023-07-31T09:52:47;93895.06;;;26.70;84.21
11077;BME280;5591;42.626;23.380;2023-07-31T09:55:14;93889.28;;;27.36;82.41
11077;BME280;5591;42.626;23.380;2023-07-31T09:57:44;93879.63;;;27.21;80.81
11077;BME280;5591;42.626;23.380;2023-07-31T10:00:12;93884.13;;;27.26;83.30
11077;BME280;5591;42.626;23.380;2023-07-31T10:02:39;93893.72;;;27.00;80.96
11077;BME280;5591;42.626;23.380;2023-07-31T10:05:07;93884.22;;;26.57;82.81
11077;BME280;5591;42.626;23.380;2023-07-31T10:07:37;93819.59;;;26.57;80.26
11077;BME280;5591;42.626;23.380;2023-07-31T10:10:07;93878.81;;;27.75;76.76
11077;BME280;5591;42.626;23.380;2023-07-31T10:12:34;93889.09;;;27.86;76.85
11077;BME280;5591;42.626;23.380;2023-07-31T10:15:04;93887.97;;;28.01;75.31
11077;BME280;5591;42.626;23.380;2023-07-31T10:17:33;93870.69;;;27.88;74.58
11077;BME280;5591;42.626;23.380;2023-07-31T10:20:02;93879.22;;;27.82;74.50
11077;BME280;5591;42.626;23.380;2023-07-31T10:22:30;93884.22;;;27.48;74.66
11077;BME280;5591;42.626;23.380;2023-07-31T10:24:58;93880.38;;;28.03;72.18
11077;BME280;5591;42.626;23.380;2023-07-31T10:27:25;93887.91;;;27.65;75.26
11077;BME280;5591;42.626;23.380;2023-07-31T10:29:54;93878.81;;;27.48;76.24
11077;BME280;5591;42.626;23.380;2023-07-31T10:32:24;93859.75;;;27.31;75.84
11077;BME280;5591;42.626;23.380;2023-07-31T10:34:51;93860.31;;;27.68;70.94
11077;BME280;5591;42.626;23.380;2023-07-31T10:37:23;93863.69;;;28.01;70.41
11077;BME280;5591;42.626;23.380;2023-07-31T10:40:01;93863.94;;;28.13;68.80
11077;BME280;5591;42.626;23.380;2023-07-31T10:42:33;93858.63;;;27.45;71.83
11077;BME280;5591;42.626;23.380;2023-07-31T10:45:02;93881.22;;;27.90;68.34
11077;BME280;5591;42.626;23.380;2023-07-31T10:47:31;93854.41;;;28.51;66.24
11077;BME280;5591;42.626;23.380;2023-07-31T10:50:13;93867.63;;;28.74;64.97
11077;BME280;5591;42.626;23.380;2023-07-31T10:52:40;93853.19;;;28.35;67.98
11077;BME280;5591;42.626;23.380;2023-07-31T10:55:24;93852.22;;;27.55;70.17
11077;BME280;5591;42.626;23.380;2023-07-31T10:57:51;93897.00;;;27.29;71.18
11077;BME280;5591;42.626;23.380;2023-07-31T11:00:24;93835.22;;;27.81;67.16
11077;BME280;5591;42.626;23.380;2023-07-31T11:03:01;93851.03;;;27.61;71.08
11077;BME280;5591;42.626;23.380;2023-07-31T11:05:47;93851.84;;;27.75;67.94
11077;BME280;5591;42.626;23.380;2023-07-31T11:08:15;93827.31;;;28.34;62.74
11077;BME280;5591;42.626;23.380;2023-07-31T11:10:43;93843.47;;;28.99;60.16
11077;BME280;5591;42.626;23.380;2023-07-31T11:13:10;93851.88;;;28.98;57.43
11077;BME280;5591;42.626;23.380;2023-07-31T11:15:37;93829.50;;;28.75;57.45
11077;BME280;5591;42.626;23.380;2023-07-31T11:18:05;93860.66;;;29.03;56.96
11077;BME280;5591;42.626;23.380;2023-07-31T11:20:34;93847.84;;;29.17;56.62
11077;BME280;5591;42.626;23.380;2023-07-31T11:23:02;93835.13;;;28.87;57.16
11077;BME280;5591;42.626;23.380;2023-07-31T11:25:30;93841.84;;;29.29;56.66
11077;BME280;5591;42.626;23.380;2023-07-31T11:27:58;93836.84;;;30.17;51.70
11077;BME280;5591;42.626;23.380;2023-07-31T11:30:28;93844.75;;;29.41;53.96
11077;BME280;5591;42.626;23.380;2023-07-31T11:32:55;93840.22;;;28.67;57.39
11077;BME280;5591;42.626;23.380;2023-07-31T11:35:23;93863.44;;;29.20;54.25
11077;BME280;5591;42.626;23.380;2023-07-31T11:37:50;93850.91;;;29.33;52.93
11077;BME280;5591;42.626;23.380;2023-07-31T11:40:18;93840.00;;;30.02;49.10
11077;BME280;5591;42.626;23.380;2023-07-31T11:42:45;93837.88;;;29.74;50.46
11077;BME280;5591;42.626;23.380;2023-07-31T11:45:12;93827.38;;;29.25;51.87
11077;BME280;5591;42.626;23.380;2023-07-31T11:47:39;93819.25;;;28.94;53.04
11077;BME280;5591;42.626;23.380;2023-07-31T11:50:10;93812.25;;;28.93;53.80
11077;BME280;5591;42.626;23.380;2023-07-31T11:52:42;93831.44;;;30.17;50.19
11077;BME280;5591;42.626;23.380;2023-07-31T11:55:11;93815.94;;;30.69;48.75
11077;BME280;5591;42.626;23.380;2023-07-31T11:57:40;93814.34;;;31.31;46.68
11077;BME280;5591;42.626;23.380;2023-07-31T12:00:09;93819.47;;;30.44;50.42
11077;BME280;5591;42.626;23.380;2023-07-31T12:02:38;93829.09;;;28.25;60.79
11077;BME280;5591;42.626;23.380;2023-07-31T12:05:06;93827.59;;;28.54;61.64
11077;BME280;5591;42.626;23.380;2023-07-31T12:07:45;93821.22;;;30.31;52.63
11077;BME280;5591;42.626;23.380;2023-07-31T12:10:23;93818.94;;;29.91;50.55
11077;BME280;5591;42.626;23.380;2023-07-31T12:12:58;93738.38;;;30.30;47.56
11077;BME280;5591;42.626;23.380;2023-07-31T12:15:39;93815.81;;;31.57;45.02
11077;BME280;5591;42.626;23.380;2023-07-31T12:18:08;93768.97;;;31.40;43.40
11077;BME280;5591;42.626;23.380;2023-07-31T12:20:39;93814.47;;;32.00;43.63
11077;BME280;5591;42.626;23.380;2023-07-31T12:23:13;93800.03;;;32.29;42.96
11077;BME280;5591;42.626;23.380;2023-07-31T12:25:40;93809.66;;;31.77;43.64
11077;BME280;5591;42.626;23.380;2023-07-31T12:28:08;93806.50;;;31.95;43.89
11077;BME280;5591;42.626;23.380;2023-07-31T12:30:38;93793.13;;;32.52;42.22
11077;BME280;5591;42.626;23.380;2023-07-31T12:33:06;93813.25;;;31.60;44.04
11077;BME280;5591;42.626;23.380;2023-07-31T12:35:37;93807.09;;;30.97;45.20
11077;BME280;5591;42.626;23.380;2023-07-31T12:38:04;93808.72;;;30.98;47.17
11077;BME280;5591;42.626;23.380;2023-07-31T12:40:32;93804.50;;;32.04;45.56
11077;BME280;5591;42.626;23.380;2023-07-31T12:43:01;93805.19;;;32.42;44.99
11077;BME280;5591;42.626;23.380;2023-07-31T12:45:29;93812.44;;;31.23;47.64
11077;BME280;5591;42.626;23.380;2023-07-31T12:47:56;93799.53;;;30.65;50.01
11077;BME280;5591;42.626;23.380;2023-07-31T12:50:23;93796.19;;;30.43;50.44
11077;BME280;5591;42.626;23.380;2023-07-31T12:52:51;93783.34;;;29.41;52.21
11077;BME280;5591;42.626;23.380;2023-07-31T12:55:18;93785.50;;;29.70;53.17
11077;BME280;5591;42.626;23.380;2023-07-31T12:57:46;93789.41;;;29.47;53.50